Fall Creek, Illinois
Current Conditions -  °F | °C
As of 10:22 AM on Sunday 23 Nov 2014 (Local Time) from KUIN Reporting Station
Moderate Rain Moderate Rain  
Wind Chill: 52°   Ceiling: 1400
Heat Index: 52°   Visibility: 1.5mi
Dew Point: 50°   Wind: 9mph
Humidity: 93%   Direction: 160°SSE
Pressure: 29.56"   Gusts: NA
Location:  39.806°N, 91.2945°W
Report Text: KUIN 231622Z AUTO 16008KT 1 1/2SM RA BR FEW007 BKN014 OVC030 11/10 A2956 RMK AO2 P0005 T01110100
Loading
Personal Weather Stations






























Interactive Weather Map New forecast layout! Learn more

10-Day Weather Forecast

Advertisements
Track Severe Weather on mobile